createdAt,value
2019-01-26T00:00:58.110Z,231.25
2019-01-26T00:03:30.006Z,228.00
2019-01-26T00:06:01.573Z,221.75
2019-01-26T00:08:33.472Z,225.75
2019-01-26T00:11:05.363Z,213.00
2019-01-26T00:13:36.899Z,206.00
2019-01-26T00:16:08.295Z,234.25
2019-01-26T00:18:40.581Z,216.00
2019-01-26T00:21:11.861Z,221.50
2019-01-26T00:23:43.540Z,208.50
2019-01-26T00:26:14.833Z,227.00
2019-01-26T00:28:46.571Z,207.75
2019-01-26T00:31:19.909Z,221.25
2019-01-26T00:33:51.652Z,212.75
2019-01-26T00:36:23.268Z,212.25
2019-01-26T00:38:54.973Z,215.25
2019-01-26T00:41:26.499Z,213.00
2019-01-26T00:43:58.243Z,203.00
2019-01-26T00:46:29.675Z,215.25
2019-01-26T00:49:01.378Z,205.50
2019-01-26T00:51:32.697Z,186.75
2019-01-26T00:54:05.072Z,222.50
2019-01-26T00:56:36.789Z,215.00
2019-01-26T00:59:08.806Z,208.50
2019-01-26T01:01:40.458Z,228.50
2019-01-26T01:04:12.690Z,206.00
2019-01-26T01:06:44.009Z,197.50
2019-01-26T01:09:15.801Z,204.25
2019-01-26T01:11:47.251Z,183.50
2019-01-26T01:14:19.232Z,200.25
2019-01-26T01:16:50.471Z,197.50
2019-01-26T01:19:22.010Z,201.00
2019-01-26T01:21:53.653Z,203.50
2019-01-26T01:24:25.621Z,209.25
2019-01-26T01:26:57.088Z,207.75
2019-01-26T01:29:28.789Z,197.75
2019-01-26T01:32:00.341Z,190.00
2019-01-26T01:34:32.031Z,204.50
2019-01-26T01:37:03.805Z,189.00
2019-01-26T01:39:35.437Z,203.00
2019-01-26T01:42:07.202Z,211.50
2019-01-26T01:44:38.903Z,217.50
2019-01-26T01:47:10.341Z,203.00
2019-01-26T01:49:42.268Z,214.50
2019-01-26T01:52:13.700Z,226.50
2019-01-26T01:54:45.284Z,198.25
2019-01-26T01:57:16.881Z,223.00
2019-01-26T01:59:49.163Z,221.00
2019-01-26T02:02:20.720Z,205.50
2019-01-26T02:04:52.526Z,207.75
2019-01-26T02:07:23.812Z,220.00
2019-01-26T02:09:55.466Z,196.25
2019-01-26T02:12:27.058Z,190.50
2019-01-26T02:14:58.980Z,216.25
2019-01-26T02:17:30.710Z,224.00
2019-01-26T02:20:02.715Z,204.75
2019-01-26T02:22:34.792Z,217.00
2019-01-26T02:25:07.163Z,236.50
2019-01-26T02:27:38.587Z,213.75
2019-01-26T02:30:13.719Z,223.25
2019-01-26T02:32:44.974Z,204.50
2019-01-26T02:35:16.692Z,219.75
2019-01-26T02:37:48.551Z,202.00
2019-01-26T02:40:20.343Z,207.25
2019-01-26T02:42:51.710Z,210.25
2019-01-26T02:45:23.040Z,212.00
2019-01-26T02:47:54.692Z,191.25
2019-01-26T02:50:26.527Z,197.50
2019-01-26T02:52:58.224Z,218.75
2019-01-26T02:55:29.896Z,220.75
2019-01-26T02:58:01.299Z,241.25
2019-01-26T03:00:33.327Z,246.25
2019-01-26T03:03:05.159Z,248.75
2019-01-26T03:05:36.527Z,226.25
2019-01-26T03:08:08.433Z,218.25
2019-01-26T03:10:40.103Z,222.50
2019-01-26T03:13:11.593Z,205.75
2019-01-26T03:15:42.776Z,201.75
2019-01-26T03:18:14.112Z,213.00
2019-01-26T03:20:45.622Z,223.50
2019-01-26T03:23:18.399Z,229.25
2019-01-26T03:25:49.636Z,211.75
2019-01-26T03:28:21.230Z,221.75
2019-01-26T03:30:52.425Z,207.00
2019-01-26T03:33:24.425Z,218.75
2019-01-26T03:35:55.702Z,199.75
2019-01-26T03:38:27.948Z,206.00
2019-01-26T03:40:59.702Z,224.75
2019-01-26T03:43:31.455Z,211.25
2019-01-26T03:46:03.183Z,225.75
2019-01-26T03:48:34.617Z,205.25
2019-01-26T03:51:06.034Z,211.25
2019-01-26T03:53:37.441Z,219.50
2019-01-26T03:56:09.156Z,208.50
2019-01-26T03:58:40.568Z,233.25
2019-01-26T04:01:11.995Z,208.50
2019-01-26T04:03:43.404Z,188.00
2019-01-26T04:06:15.140Z,166.50
2019-01-26T04:08:47.005Z,178.25
2019-01-26T04:11:18.302Z,180.50
2019-01-26T04:13:49.750Z,190.75
2019-01-26T04:16:21.657Z,177.25
2019-01-26T04:18:53.764Z,179.75
2019-01-26T04:21:25.278Z,182.50
2019-01-26T04:23:57.343Z,184.75
2019-01-26T04:26:28.701Z,177.00
2019-01-26T04:29:00.321Z,184.75
2019-01-26T04:31:31.513Z,168.00
2019-01-26T04:34:03.049Z,164.25
2019-01-26T04:36:34.302Z,169.50
2019-01-26T04:39:09.002Z,173.25
2019-01-26T04:41:40.141Z,170.00
2019-01-26T04:44:11.948Z,179.25
2019-01-26T04:46:43.445Z,167.75
2019-01-26T04:49:15.055Z,153.60
2019-01-26T04:51:46.582Z,154.60
2019-01-26T04:54:18.478Z,155.80
2019-01-26T04:56:50.740Z,159.20
2019-01-26T04:59:22.405Z,160.40
2019-01-26T05:01:53.581Z,138.00
2019-01-26T05:04:25.566Z,150.20
2019-01-26T05:06:57.243Z,142.60
2019-01-26T05:09:28.796Z,143.60
2019-01-26T05:12:00.507Z,157.40
2019-01-26T05:14:32.568Z,140.80
2019-01-26T05:17:04.439Z,117.60
2019-01-26T05:19:37.227Z,151.80
2019-01-26T05:22:08.452Z,157.60
2019-01-26T05:24:40.222Z,143.80
2019-01-26T05:27:11.610Z,118.80
2019-01-26T05:29:43.467Z,140.80
2019-01-26T05:32:14.803Z,134.20
2019-01-26T05:34:46.796Z,109.20
2019-01-26T05:37:18.335Z,134.80
2019-01-26T05:39:49.956Z,133.80
2019-01-26T05:42:21.498Z,137.20
2019-01-26T05:44:53.130Z,132.20
2019-01-26T05:47:24.629Z,130.40
2019-01-26T05:49:56.392Z,132.00
2019-01-26T05:52:28.081Z,129.60
2019-01-26T05:54:59.935Z,123.20
2019-01-26T05:57:31.547Z,134.60
2019-01-26T06:00:02.971Z,131.40
2019-01-26T06:02:34.902Z,144.60
2019-01-26T06:05:06.733Z,133.40
2019-01-26T06:07:38.658Z,108.60
2019-01-26T06:10:10.313Z,134.40
2019-01-26T06:12:42.235Z,138.20
2019-01-26T06:15:13.693Z,144.80
2019-01-26T06:17:45.338Z,111.80
2019-01-26T06:20:17.662Z,131.40
2019-01-26T06:22:49.247Z,141.00
2019-01-26T06:25:21.000Z,145.40
2019-01-26T06:27:53.189Z,155.80
2019-01-26T06:30:26.210Z,123.20
2019-01-26T06:32:57.904Z,130.00
2019-01-26T06:35:29.695Z,124.80
2019-01-26T06:38:01.412Z,115.20
2019-01-26T06:40:32.958Z,123.00
2019-01-26T06:43:04.890Z,122.20
2019-01-26T06:45:36.405Z,114.40
2019-01-26T06:48:08.017Z,110.20
2019-01-26T06:50:39.905Z,112.00
2019-01-26T06:53:11.790Z,77.00
2019-01-26T06:55:43.373Z,113.60
2019-01-26T06:58:15.019Z,100.00
2019-01-26T07:00:46.847Z,107.40
2019-01-26T07:03:18.241Z,105.80
2019-01-26T07:06:02.793Z,120.60
2019-01-26T07:08:35.134Z,101.20
2019-01-26T07:11:06.787Z,99.60
2019-01-26T07:13:38.298Z,101.40
2019-01-26T07:16:10.280Z,93.00
2019-01-26T07:18:41.788Z,112.20
2019-01-26T07:21:13.510Z,97.40
2019-01-26T07:23:44.946Z,113.00
2019-01-26T07:26:16.605Z,111.80
2019-01-26T07:28:48.206Z,102.20
2019-01-26T07:31:19.887Z,90.80
2019-01-26T07:33:52.140Z,93.40
2019-01-26T07:36:23.431Z,95.60
2019-01-26T07:38:55.031Z,87.80
2019-01-26T07:41:26.472Z,84.80
2019-01-26T07:43:58.391Z,81.20
2019-01-26T07:46:29.993Z,89.20
2019-01-26T07:49:02.596Z,94.00
2019-01-26T07:51:33.897Z,90.00
2019-01-26T07:54:05.601Z,78.40
2019-01-26T07:56:37.342Z,81.60
2019-01-26T07:59:08.726Z,74.60
2019-01-26T08:01:40.687Z,79.80
2019-01-26T08:04:12.806Z,84.00
2019-01-26T08:06:44.216Z,66.60
2019-01-26T08:09:15.826Z,72.40
2019-01-26T08:11:47.642Z,75.80
2019-01-26T08:14:19.399Z,74.00
2019-01-26T08:16:51.003Z,76.00
2019-01-26T08:19:22.906Z,73.20
2019-01-26T08:21:54.277Z,74.20
2019-01-26T08:24:25.648Z,81.20
2019-01-26T08:26:56.964Z,78.00
2019-01-26T08:29:28.412Z,78.60
2019-01-26T08:32:00.142Z,71.00
2019-01-26T08:34:32.007Z,70.40
2019-01-26T08:37:03.401Z,74.60
2019-01-26T08:39:35.053Z,80.00
2019-01-26T08:42:06.885Z,75.40
2019-01-26T08:44:38.416Z,73.20
2019-01-26T08:47:09.890Z,86.00
2019-01-26T08:49:41.702Z,70.00
2019-01-26T08:52:13.305Z,73.40
2019-01-26T08:54:45.103Z,69.60
2019-01-26T08:57:16.758Z,70.60
2019-01-26T08:59:48.427Z,70.20
2019-01-26T09:02:47.293Z,66.60
2019-01-26T09:05:19.262Z,71.20
2019-01-26T09:07:52.144Z,68.20
2019-01-26T09:10:23.696Z,66.20
2019-01-26T09:12:55.105Z,66.40
2019-01-26T09:15:26.804Z,63.80
2019-01-26T09:17:58.320Z,63.40
2019-01-26T09:20:30.482Z,67.80
2019-01-26T09:23:01.832Z,69.40
2019-01-26T09:25:33.650Z,65.20
2019-01-26T09:28:05.099Z,66.20
2019-01-26T09:30:36.678Z,69.20
2019-01-26T09:33:08.436Z,70.20
2019-01-26T09:35:39.960Z,65.20
2019-01-26T09:38:11.603Z,67.80
2019-01-26T09:40:43.158Z,62.20
2019-01-26T09:43:14.749Z,62.60
2019-01-26T09:45:46.499Z,66.80
2019-01-26T09:48:18.056Z,65.40
2019-01-26T09:50:51.593Z,61.60
2019-01-26T09:53:23.082Z,64.60
2019-01-26T09:55:55.065Z,66.40
2019-01-26T09:58:26.418Z,67.80
2019-01-26T10:00:58.031Z,58.00
2019-01-26T10:03:29.468Z,57.20
2019-01-26T10:06:01.168Z,58.80
2019-01-26T10:08:32.726Z,63.80
2019-01-26T10:11:04.523Z,62.20
2019-01-26T10:13:36.117Z,60.60
2019-01-26T10:16:08.000Z,62.00
2019-01-26T10:18:39.585Z,62.40
2019-01-26T10:21:11.841Z,63.80
2019-01-26T10:23:43.260Z,63.80
2019-01-26T10:26:14.727Z,64.40
2019-01-26T10:28:46.411Z,55.20
2019-01-26T10:31:18.381Z,59.80
2019-01-26T10:33:49.740Z,63.40
2019-01-26T10:36:29.049Z,58.40
2019-01-26T10:39:04.155Z,58.60
2019-01-26T10:42:07.549Z,61.60
2019-01-26T10:44:39.528Z,57.40
2019-01-26T10:47:17.321Z,59.80
2019-01-26T10:49:48.869Z,62.20
2019-01-26T10:52:20.315Z,57.20
2019-01-26T10:54:51.824Z,54.20
2019-01-26T10:57:23.194Z,54.00
2019-01-26T10:59:54.697Z,57.00
2019-01-26T11:02:25.996Z,56.00
2019-01-26T11:04:57.383Z,62.00
2019-01-26T11:07:29.109Z,59.00
2019-01-26T11:10:00.942Z,61.20
2019-01-26T11:12:32.494Z,63.20
2019-01-26T11:15:03.707Z,62.00
2019-01-26T11:17:36.005Z,60.20
2019-01-26T11:20:08.096Z,63.40
2019-01-26T11:22:39.829Z,62.80
2019-01-26T11:25:11.689Z,59.20
2019-01-26T11:27:43.456Z,65.20
2019-01-26T11:30:15.101Z,65.20
2019-01-26T11:32:46.749Z,58.40
2019-01-26T11:35:18.149Z,59.80
2019-01-26T11:37:53.315Z,61.20
2019-01-26T11:40:25.488Z,63.60
2019-01-26T11:42:56.713Z,64.00
2019-01-26T11:45:50.377Z,61.00
2019-01-26T11:48:24.676Z,63.60
2019-01-26T11:51:01.091Z,66.20
2019-01-26T11:53:32.300Z,60.60
2019-01-26T11:56:25.522Z,63.20
2019-01-26T11:58:57.072Z,66.00
2019-01-26T12:01:36.053Z,68.80
2019-01-26T12:04:29.463Z,64.40
2019-01-26T12:07:15.519Z,66.20
2019-01-26T12:09:47.050Z,74.40
2019-01-26T12:12:18.663Z,72.40
2019-01-26T12:14:50.598Z,73.60
2019-01-26T12:17:21.825Z,76.20
2019-01-26T12:19:53.230Z,126.00
2019-01-26T12:22:24.630Z,176.50
2019-01-26T12:24:56.262Z,207.75
2019-01-26T12:27:27.662Z,211.75
2019-01-26T12:29:59.138Z,195.50
2019-01-26T12:32:30.442Z,184.75
2019-01-26T12:35:01.968Z,129.00
2019-01-26T12:37:33.221Z,127.20
2019-01-26T12:40:05.199Z,131.80
2019-01-26T12:42:36.872Z,121.60
2019-01-26T12:45:12.270Z,132.60
2019-01-26T12:47:43.555Z,131.60
2019-01-26T12:50:15.384Z,131.00
2019-01-26T12:52:46.943Z,103.60
2019-01-26T12:55:19.050Z,118.80
2019-01-26T12:57:50.273Z,101.40
2019-01-26T13:00:22.286Z,118.00
2019-01-26T13:02:53.450Z,116.40
2019-01-26T13:05:25.076Z,118.80
2019-01-26T13:07:56.228Z,115.60
2019-01-26T13:10:34.298Z,112.20
2019-01-26T13:13:06.357Z,116.20
2019-01-26T13:15:38.163Z,109.00
2019-01-26T13:18:09.555Z,108.80
2019-01-26T13:20:41.437Z,106.60
2019-01-26T13:23:12.659Z,108.80
2019-01-26T13:25:44.634Z,117.20
2019-01-26T13:28:16.316Z,108.80
2019-01-26T13:30:47.852Z,108.40
2019-01-26T13:33:19.763Z,114.80
2019-01-26T13:35:51.881Z,115.60
2019-01-26T13:38:23.617Z,130.60
2019-01-26T13:40:55.284Z,124.00
2019-01-26T13:43:26.620Z,127.20
2019-01-26T13:45:58.388Z,129.00
2019-01-26T13:48:29.871Z,141.40
2019-01-26T13:51:01.393Z,194.00
2019-01-26T13:53:32.736Z,236.25
2019-01-26T13:56:04.109Z,216.50
2019-01-26T13:58:35.418Z,217.25
2019-01-26T14:01:06.756Z,182.25
2019-01-26T14:03:37.984Z,162.50
2019-01-26T14:06:09.479Z,185.50
2019-01-26T14:08:40.877Z,174.25
2019-01-26T14:11:12.356Z,169.75
2019-01-26T14:13:43.559Z,159.00
2019-01-26T14:16:15.983Z,154.00
2019-01-26T14:18:47.092Z,141.00
2019-01-26T14:21:18.942Z,140.80
2019-01-26T14:23:50.210Z,136.60
2019-01-26T14:26:21.719Z,150.40
2019-01-26T14:28:53.283Z,141.20
2019-01-26T14:31:24.912Z,142.20
2019-01-26T14:33:56.286Z,160.00
2019-01-26T14:36:27.895Z,196.50
2019-01-26T14:38:59.385Z,196.75
2019-01-26T14:41:30.835Z,172.75
2019-01-26T14:44:01.875Z,145.00
2019-01-26T14:46:34.306Z,138.20
2019-01-26T14:49:05.579Z,122.00
2019-01-26T14:51:37.232Z,118.80
2019-01-26T14:54:08.917Z,122.60
2019-01-26T14:56:40.596Z,123.80
2019-01-26T14:59:11.931Z,129.60
2019-01-26T15:01:43.323Z,142.40
2019-01-26T15:04:14.694Z,147.20
2019-01-26T15:06:46.189Z,141.40
2019-01-26T15:09:17.585Z,152.60
2019-01-26T15:11:48.900Z,139.80
2019-01-26T15:14:20.205Z,138.40
2019-01-26T15:16:51.668Z,146.40
2019-01-26T15:19:23.321Z,137.20
2019-01-26T15:21:54.905Z,142.80
2019-01-26T15:24:26.689Z,138.00
2019-01-26T15:26:58.203Z,139.60
2019-01-26T15:29:29.937Z,145.60
2019-01-26T15:32:01.336Z,151.40
2019-01-26T15:34:33.040Z,130.00
2019-01-26T15:37:04.707Z,124.60
2019-01-26T15:39:36.085Z,143.00
2019-01-26T15:42:07.639Z,145.20
2019-01-26T15:44:39.524Z,130.80
2019-01-26T15:47:11.614Z,130.20
2019-01-26T15:49:43.325Z,133.40
2019-01-26T15:52:14.883Z,144.00
2019-01-26T15:54:46.623Z,130.60
2019-01-26T15:57:18.623Z,134.60
2019-01-26T15:59:53.569Z,133.60
2019-01-26T16:02:23.912Z,135.00
2019-01-26T16:04:55.650Z,137.20
2019-01-26T16:07:27.075Z,136.40
2019-01-26T16:09:58.277Z,134.60
2019-01-26T16:12:29.607Z,156.00
2019-01-26T16:15:00.826Z,149.00
2019-01-26T16:17:33.048Z,155.60
2019-01-26T16:20:05.187Z,144.00
2019-01-26T16:22:37.073Z,138.80
2019-01-26T16:25:08.640Z,142.40
2019-01-26T16:27:40.422Z,136.00
2019-01-26T16:30:15.411Z,144.20
2019-01-26T16:32:47.666Z,140.80
2019-01-26T16:35:19.501Z,150.20
2019-01-26T16:37:51.030Z,140.80
2019-01-26T16:40:24.784Z,134.60
2019-01-26T16:42:56.379Z,129.60
2019-01-26T16:45:29.928Z,135.00
2019-01-26T16:48:02.007Z,135.40
2019-01-26T16:50:33.735Z,134.00
2019-01-26T16:53:05.642Z,127.80
2019-01-26T16:55:37.051Z,119.80
2019-01-26T16:58:08.875Z,129.20
2019-01-26T17:00:45.202Z,126.80
2019-01-26T17:03:17.158Z,125.20
2019-01-26T17:05:48.580Z,122.40
2019-01-26T17:08:20.044Z,131.00
2019-01-26T17:10:55.905Z,119.20
2019-01-26T17:13:26.868Z,134.60
2019-01-26T17:15:58.324Z,129.80
2019-01-26T17:18:30.114Z,137.00
2019-01-26T17:21:01.352Z,128.00
2019-01-26T17:23:32.962Z,125.00
2019-01-26T17:26:04.225Z,133.60
2019-01-26T17:28:36.259Z,113.60
2019-01-26T17:31:07.438Z,152.40
2019-01-26T17:33:39.074Z,126.20
2019-01-26T17:36:10.482Z,132.00
2019-01-26T17:38:42.115Z,127.00
2019-01-26T17:41:13.705Z,125.00
2019-01-26T17:43:45.486Z,137.80
2019-01-26T17:46:16.837Z,139.00
2019-01-26T17:48:48.824Z,134.80
2019-01-26T17:51:21.127Z,133.60
2019-01-26T17:53:52.708Z,132.20
2019-01-26T17:56:24.166Z,129.80
2019-01-26T17:58:55.599Z,136.60
2019-01-26T18:01:26.945Z,134.00
2019-01-26T18:03:58.205Z,119.60
2019-01-26T18:06:29.464Z,145.00
2019-01-26T18:09:00.837Z,125.60
2019-01-26T18:11:33.962Z,125.20
2019-01-26T18:14:05.449Z,117.00
2019-01-26T18:16:36.885Z,132.60
2019-01-26T18:19:08.929Z,117.40
2019-01-26T18:21:41.002Z,125.40
2019-01-26T18:24:12.751Z,119.80
2019-01-26T18:26:45.427Z,122.40
2019-01-26T18:29:16.759Z,123.60
2019-01-26T18:31:48.094Z,123.60
2019-01-26T18:34:19.599Z,126.00
2019-01-26T18:36:50.793Z,129.20
2019-01-26T18:39:22.138Z,123.80
2019-01-26T18:41:53.473Z,116.00
2019-01-26T18:44:25.379Z,116.20
2019-01-26T18:46:56.735Z,129.20
2019-01-26T18:49:28.318Z,114.40
2019-01-26T18:51:59.472Z,125.60
2019-01-26T18:54:31.002Z,122.00
2019-01-26T18:57:02.793Z,115.80
2019-01-26T18:59:34.490Z,131.00
2019-01-26T19:02:06.484Z,132.20
2019-01-26T19:04:46.005Z,142.60
2019-01-26T19:07:17.746Z,141.75
2019-01-26T19:09:52.858Z,158.25
2019-01-26T19:12:24.211Z,177.50
2019-01-26T19:14:55.459Z,151.60
2019-01-26T19:17:26.622Z,139.60
2019-01-26T19:19:58.276Z,123.60
2019-01-26T19:22:29.582Z,125.80
2019-01-26T19:25:01.396Z,121.80
2019-01-26T19:27:32.866Z,120.20
2019-01-26T19:30:04.959Z,115.40
2019-01-26T19:32:36.867Z,105.60
2019-01-26T19:35:08.678Z,121.80
2019-01-26T19:37:40.098Z,119.40
2019-01-26T19:40:22.810Z,121.80
2019-01-26T19:42:54.232Z,105.80
2019-01-26T19:45:25.935Z,115.60
2019-01-26T19:47:57.661Z,104.80
2019-01-26T19:50:29.504Z,112.80
2019-01-26T19:53:00.879Z,118.60
2019-01-26T19:55:32.261Z,122.20
2019-01-26T19:58:03.806Z,108.80
2019-01-26T20:00:35.340Z,120.20
2019-01-26T20:03:07.077Z,108.00
2019-01-26T20:05:38.581Z,104.00
2019-01-26T20:08:10.300Z,101.40
2019-01-26T20:10:41.698Z,121.20
2019-01-26T20:13:13.086Z,115.00
2019-01-26T20:15:44.682Z,126.80
2019-01-26T20:18:15.986Z,125.20
2019-01-26T20:20:47.716Z,117.80
2019-01-26T20:23:19.094Z,111.00
2019-01-26T20:25:50.948Z,107.20
2019-01-26T20:28:22.212Z,108.20
2019-01-26T20:30:53.840Z,109.20
2019-01-26T20:33:25.117Z,104.40
2019-01-26T20:35:56.620Z,113.40
2019-01-26T20:38:28.404Z,112.60
2019-01-26T20:40:59.833Z,95.20
2019-01-26T20:43:31.670Z,121.20
2019-01-26T20:46:03.315Z,120.80
2019-01-26T20:48:35.765Z,117.60
2019-01-26T20:51:07.701Z,118.40
2019-01-26T20:53:39.259Z,105.40
2019-01-26T20:56:11.052Z,122.80
2019-01-26T20:58:42.266Z,120.00
2019-01-26T21:01:13.689Z,118.60
2019-01-26T21:03:45.181Z,113.40
2019-01-26T21:06:16.493Z,124.20
2019-01-26T21:08:47.805Z,120.40
2019-01-26T21:11:19.305Z,123.60
2019-01-26T21:13:50.723Z,120.80
2019-01-26T21:16:23.190Z,110.20
2019-01-26T21:18:54.641Z,122.40
2019-01-26T21:21:31.802Z,118.60
2019-01-26T21:23:59.252Z,119.60
2019-01-26T21:26:31.043Z,118.40
2019-01-26T21:29:02.431Z,109.00
2019-01-26T21:31:34.035Z,120.80
2019-01-26T21:34:05.270Z,113.40
2019-01-26T21:36:37.014Z,117.50
2019-01-26T21:39:10.423Z,105.60
2019-01-26T21:41:42.309Z,118.60
2019-01-26T21:44:13.582Z,120.40
2019-01-26T21:46:45.204Z,110.60
2019-01-26T21:49:16.403Z,118.20
2019-01-26T21:51:48.068Z,123.80
2019-01-26T21:54:19.650Z,106.00
2019-01-26T21:56:52.216Z,126.00
2019-01-26T21:59:23.384Z,114.80
2019-01-26T22:01:55.117Z,121.20
2019-01-26T22:04:26.678Z,115.40
2019-01-26T22:06:58.636Z,123.40
2019-01-26T22:09:30.231Z,112.40
2019-01-26T22:12:01.539Z,106.20
2019-01-26T22:14:32.867Z,114.80
2019-01-26T22:17:04.036Z,99.00
2019-01-26T22:19:35.355Z,118.00
2019-01-26T22:22:06.574Z,122.80
2019-01-26T22:24:38.049Z,118.60
2019-01-26T22:27:09.657Z,120.80
2019-01-26T22:29:41.345Z,119.20
2019-01-26T22:32:12.978Z,122.80
2019-01-26T22:34:44.258Z,112.00
2019-01-26T22:37:16.028Z,123.80
2019-01-26T22:39:47.618Z,120.60
2019-01-26T22:42:19.064Z,104.00
2019-01-26T22:44:50.347Z,96.20
2019-01-26T22:47:22.210Z,115.40
2019-01-26T22:49:54.149Z,117.60
2019-01-26T22:52:25.592Z,115.00
2019-01-26T22:54:57.058Z,110.60
2019-01-26T22:57:29.065Z,112.40
2019-01-26T23:00:00.544Z,120.40
2019-01-26T23:02:31.748Z,111.40
2019-01-26T23:05:28.792Z,123.20
2019-01-26T23:08:11.069Z,114.60
2019-01-26T23:11:18.999Z,114.60
2019-01-26T23:14:21.519Z,119.60
2019-01-26T23:17:22.256Z,118.00
2019-01-26T23:20:34.315Z,112.20
2019-01-26T23:23:41.779Z,126.20
2019-01-26T23:26:27.466Z,131.80
2019-01-26T23:29:13.206Z,132.60
2019-01-26T23:31:44.849Z,140.60
2019-01-26T23:34:16.298Z,119.20
2019-01-26T23:36:47.643Z,122.00
2019-01-26T23:39:20.321Z,130.60
2019-01-26T23:41:51.822Z,141.00
2019-01-26T23:44:22.986Z,129.60
2019-01-26T23:46:54.502Z,134.00
2019-01-26T23:49:25.878Z,122.20
2019-01-26T23:51:57.447Z,143.80
2019-01-26T23:54:29.160Z,136.40
2019-01-26T23:57:00.739Z,128.80
2019-01-26T23:59:31.929Z,110.20
